sensor_id;sensor_type;location;lat;lon;timestamp;P1;durP1;ratioP1;P2;durP2;ratioP2
43803;SDS011;29430;52.924;-2.388;2023-06-10T00:03:08;11.90;;;5.00;;
43803;SDS011;29430;52.924;-2.388;2023-06-10T00:08:00;13.15;;;5.45;;
43803;SDS011;29430;52.924;-2.388;2023-06-10T00:12:58;10.05;;;4.88;;
43803;SDS011;29430;52.924;-2.388;2023-06-10T00:17:49;10.68;;;5.38;;
43803;SDS011;29430;52.924;-2.388;2023-06-10T00:22:46;15.45;;;5.07;;
43803;SDS011;29430;52.924;-2.388;2023-06-10T00:27:38;10.10;;;5.00;;
43803;SDS011;29430;52.924;-2.388;2023-06-10T00:32:30;12.43;;;6.30;;
43803;SDS011;29430;52.924;-2.388;2023-06-10T00:37:22;12.18;;;6.03;;
43803;SDS011;29430;52.924;-2.388;2023-06-10T00:42:14;14.65;;;6.65;;
43803;SDS011;29430;52.924;-2.388;2023-06-10T00:47:05;11.32;;;6.13;;
43803;SDS011;29430;52.924;-2.388;2023-06-10T00:51:58;12.50;;;6.97;;
43803;SDS011;29430;52.924;-2.388;2023-06-10T00:56:50;10.32;;;6.18;;
43803;SDS011;29430;52.924;-2.388;2023-06-10T01:01:42;15.80;;;7.45;;
43803;SDS011;29430;52.924;-2.388;2023-06-10T01:06:57;12.25;;;7.40;;
43803;SDS011;29430;52.924;-2.388;2023-06-10T01:12:21;12.52;;;6.82;;
43803;SDS011;29430;52.924;-2.388;2023-06-10T01:17:34;10.00;;;5.95;;
43803;SDS011;29430;52.924;-2.388;2023-06-10T01:22:28;12.63;;;7.43;;
43803;SDS011;29430;52.924;-2.388;2023-06-10T01:27:25;11.23;;;7.95;;
43803;SDS011;29430;52.924;-2.388;2023-06-10T01:32:21;16.45;;;8.48;;
43803;SDS011;29430;52.924;-2.388;2023-06-10T01:37:19;17.55;;;8.50;;
43803;SDS011;29430;52.924;-2.388;2023-06-10T01:42:13;14.65;;;8.45;;
43803;SDS011;29430;52.924;-2.388;2023-06-10T01:47:05;14.75;;;9.27;;
43803;SDS011;29430;52.924;-2.388;2023-06-10T01:51:57;15.43;;;9.18;;
43803;SDS011;29430;52.924;-2.388;2023-06-10T01:56:48;15.80;;;9.15;;
43803;SDS011;29430;52.924;-2.388;2023-06-10T02:01:40;14.05;;;8.95;;
43803;SDS011;29430;52.924;-2.388;2023-06-10T02:06:32;13.13;;;9.75;;
43803;SDS011;29430;52.924;-2.388;2023-06-10T02:11:24;15.00;;;10.00;;
43803;SDS011;29430;52.924;-2.388;2023-06-10T02:16:15;13.93;;;9.15;;
43803;SDS011;29430;52.924;-2.388;2023-06-10T02:21:08;11.35;;;8.55;;
43803;SDS011;29430;52.924;-2.388;2023-06-10T02:26:01;18.88;;;9.95;;
43803;SDS011;29430;52.924;-2.388;2023-06-10T02:30:53;16.08;;;9.85;;
43803;SDS011;29430;52.924;-2.388;2023-06-10T02:35:45;18.23;;;10.85;;
43803;SDS011;29430;52.924;-2.388;2023-06-10T02:40:37;15.75;;;10.55;;
43803;SDS011;29430;52.924;-2.388;2023-06-10T02:45:28;16.92;;;10.18;;
43803;SDS011;29430;52.924;-2.388;2023-06-10T02:50:20;16.30;;;10.30;;
43803;SDS011;29430;52.924;-2.388;2023-06-10T02:55:12;19.15;;;10.88;;
43803;SDS011;29430;52.924;-2.388;2023-06-10T03:00:03;17.20;;;10.32;;
43803;SDS011;29430;52.924;-2.388;2023-06-10T03:05:00;14.18;;;11.15;;
43803;SDS011;29430;52.924;-2.388;2023-06-10T03:09:52;18.48;;;11.10;;
43803;SDS011;29430;52.924;-2.388;2023-06-10T03:14:43;16.35;;;9.32;;
43803;SDS011;29430;52.924;-2.388;2023-06-10T03:19:35;14.75;;;9.50;;
43803;SDS011;29430;52.924;-2.388;2023-06-10T03:24:29;15.88;;;11.32;;
43803;SDS011;29430;52.924;-2.388;2023-06-10T03:29:21;17.83;;;10.90;;
43803;SDS011;29430;52.924;-2.388;2023-06-10T03:34:12;16.30;;;11.65;;
43803;SDS011;29430;52.924;-2.388;2023-06-10T03:39:04;13.52;;;10.05;;
43803;SDS011;29430;52.924;-2.388;2023-06-10T03:43:56;13.02;;;9.35;;
43803;SDS011;29430;52.924;-2.388;2023-06-10T03:48:47;14.07;;;9.20;;
43803;SDS011;29430;52.924;-2.388;2023-06-10T03:53:39;15.52;;;11.00;;
43803;SDS011;29430;52.924;-2.388;2023-06-10T03:58:31;19.85;;;12.23;;
43803;SDS011;29430;52.924;-2.388;2023-06-10T04:03:23;14.07;;;9.13;;
43803;SDS011;29430;52.924;-2.388;2023-06-10T04:08:15;16.52;;;10.68;;
43803;SDS011;29430;52.924;-2.388;2023-06-10T04:13:07;15.88;;;10.85;;
43803;SDS011;29430;52.924;-2.388;2023-06-10T04:18:00;13.15;;;10.10;;
43803;SDS011;29430;52.924;-2.388;2023-06-10T04:22:54;16.13;;;10.48;;
43803;SDS011;29430;52.924;-2.388;2023-06-10T04:27:46;15.20;;;10.48;;
43803;SDS011;29430;52.924;-2.388;2023-06-10T04:32:38;13.25;;;8.52;;
43803;SDS011;29430;52.924;-2.388;2023-06-10T04:37:30;14.05;;;9.98;;
43803;SDS011;29430;52.924;-2.388;2023-06-10T04:42:21;15.35;;;9.27;;
43803;SDS011;29430;52.924;-2.388;2023-06-10T04:47:14;17.70;;;10.32;;
43803;SDS011;29430;52.924;-2.388;2023-06-10T04:52:05;16.45;;;11.30;;
43803;SDS011;29430;52.924;-2.388;2023-06-10T04:56:57;13.43;;;9.95;;
43803;SDS011;29430;52.924;-2.388;2023-06-10T05:01:49;17.92;;;11.05;;
43803;SDS011;29430;52.924;-2.388;2023-06-10T05:06:41;17.25;;;11.07;;
43803;SDS011;29430;52.924;-2.388;2023-06-10T05:11:32;14.85;;;9.65;;
43803;SDS011;29430;52.924;-2.388;2023-06-10T05:16:24;14.93;;;10.40;;
43803;SDS011;29430;52.924;-2.388;2023-06-10T05:21:16;16.58;;;9.35;;
43803;SDS011;29430;52.924;-2.388;2023-06-10T05:26:08;15.88;;;9.27;;
43803;SDS011;29430;52.924;-2.388;2023-06-10T05:30:59;14.13;;;10.15;;
43803;SDS011;29430;52.924;-2.388;2023-06-10T05:35:51;14.13;;;10.15;;
43803;SDS011;29430;52.924;-2.388;2023-06-10T05:40:43;14.25;;;9.63;;
43803;SDS011;29430;52.924;-2.388;2023-06-10T05:45:34;16.58;;;11.23;;
43803;SDS011;29430;52.924;-2.388;2023-06-10T05:50:26;12.65;;;9.57;;
43803;SDS011;29430;52.924;-2.388;2023-06-10T05:55:18;16.20;;;9.95;;
43803;SDS011;29430;52.924;-2.388;2023-06-10T06:00:09;16.65;;;10.38;;
43803;SDS011;29430;52.924;-2.388;2023-06-10T06:05:02;13.57;;;10.68;;
43803;SDS011;29430;52.924;-2.388;2023-06-10T06:09:54;15.40;;;10.02;;
43803;SDS011;29430;52.924;-2.388;2023-06-10T06:14:45;16.00;;;11.20;;
43803;SDS011;29430;52.924;-2.388;2023-06-10T06:19:37;14.20;;;8.43;;
43803;SDS011;29430;52.924;-2.388;2023-06-10T06:24:29;14.38;;;9.80;;
43803;SDS011;29430;52.924;-2.388;2023-06-10T06:29:20;11.43;;;9.30;;
43803;SDS011;29430;52.924;-2.388;2023-06-10T06:34:12;11.45;;;8.57;;
43803;SDS011;29430;52.924;-2.388;2023-06-10T06:39:07;14.10;;;10.23;;
43803;SDS011;29430;52.924;-2.388;2023-06-10T06:43:58;16.48;;;10.65;;
43803;SDS011;29430;52.924;-2.388;2023-06-10T06:48:50;16.52;;;11.77;;
43803;SDS011;29430;52.924;-2.388;2023-06-10T06:53:42;15.57;;;10.95;;
43803;SDS011;29430;52.924;-2.388;2023-06-10T06:58:36;15.77;;;11.13;;
43803;SDS011;29430;52.924;-2.388;2023-06-10T07:03:27;13.95;;;11.48;;
43803;SDS011;29430;52.924;-2.388;2023-06-10T07:08:19;15.38;;;10.57;;
43803;SDS011;29430;52.924;-2.388;2023-06-10T07:13:11;11.90;;;10.23;;
43803;SDS011;29430;52.924;-2.388;2023-06-10T07:18:05;13.93;;;9.80;;
43803;SDS011;29430;52.924;-2.388;2023-06-10T07:22:57;16.15;;;9.48;;
43803;SDS011;29430;52.924;-2.388;2023-06-10T07:27:49;12.63;;;9.00;;
43803;SDS011;29430;52.924;-2.388;2023-06-10T07:32:40;11.48;;;8.55;;
43803;SDS011;29430;52.924;-2.388;2023-06-10T07:37:32;12.13;;;8.50;;
43803;SDS011;29430;52.924;-2.388;2023-06-10T07:42:24;11.85;;;8.88;;
43803;SDS011;29430;52.924;-2.388;2023-06-10T07:47:16;10.75;;;7.57;;
43803;SDS011;29430;52.924;-2.388;2023-06-10T07:52:07;11.65;;;7.55;;
43803;SDS011;29430;52.924;-2.388;2023-06-10T07:57:00;13.43;;;8.80;;
43803;SDS011;29430;52.924;-2.388;2023-06-10T08:01:52;11.05;;;7.88;;
43803;SDS011;29430;52.924;-2.388;2023-06-10T08:06:44;13.43;;;7.75;;
43803;SDS011;29430;52.924;-2.388;2023-06-10T08:11:36;12.88;;;9.15;;
43803;SDS011;29430;52.924;-2.388;2023-06-10T08:16:28;9.65;;;7.63;;
43803;SDS011;29430;52.924;-2.388;2023-06-10T08:21:19;10.75;;;7.53;;
43803;SDS011;29430;52.924;-2.388;2023-06-10T08:26:11;12.98;;;7.55;;
43803;SDS011;29430;52.924;-2.388;2023-06-10T08:31:03;15.63;;;8.05;;
43803;SDS011;29430;52.924;-2.388;2023-06-10T08:35:55;12.93;;;6.70;;
43803;SDS011;29430;52.924;-2.388;2023-06-10T08:40:46;13.65;;;8.38;;
43803;SDS011;29430;52.924;-2.388;2023-06-10T08:45:38;11.35;;;7.85;;
43803;SDS011;29430;52.924;-2.388;2023-06-10T08:50:35;17.70;;;8.63;;
43803;SDS011;29430;52.924;-2.388;2023-06-10T08:55:38;13.07;;;6.65;;
43803;SDS011;29430;52.924;-2.388;2023-06-10T09:00:34;9.35;;;7.82;;
43803;SDS011;29430;52.924;-2.388;2023-06-10T09:05:27;13.65;;;8.57;;
43803;SDS011;29430;52.924;-2.388;2023-06-10T09:10:20;12.73;;;8.13;;
43803;SDS011;29430;52.924;-2.388;2023-06-10T09:15:11;11.93;;;8.68;;
43803;SDS011;29430;52.924;-2.388;2023-06-10T09:20:03;10.63;;;7.75;;
43803;SDS011;29430;52.924;-2.388;2023-06-10T09:25:05;15.38;;;9.05;;
43803;SDS011;29430;52.924;-2.388;2023-06-10T09:30:00;15.50;;;9.18;;
43803;SDS011;29430;52.924;-2.388;2023-06-10T09:34:52;11.57;;;8.88;;
43803;SDS011;29430;52.924;-2.388;2023-06-10T09:39:43;14.40;;;9.32;;
43803;SDS011;29430;52.924;-2.388;2023-06-10T09:44:35;15.38;;;8.95;;
43803;SDS011;29430;52.924;-2.388;2023-06-10T09:49:28;14.82;;;9.02;;
43803;SDS011;29430;52.924;-2.388;2023-06-10T09:54:21;12.77;;;9.18;;
43803;SDS011;29430;52.924;-2.388;2023-06-10T09:59:13;11.38;;;8.75;;
43803;SDS011;29430;52.924;-2.388;2023-06-10T10:04:05;11.93;;;7.32;;
43803;SDS011;29430;52.924;-2.388;2023-06-10T10:08:56;13.45;;;8.90;;
43803;SDS011;29430;52.924;-2.388;2023-06-10T10:13:49;13.63;;;9.10;;
43803;SDS011;29430;52.924;-2.388;2023-06-10T10:18:43;15.90;;;9.25;;
43803;SDS011;29430;52.924;-2.388;2023-06-10T10:23:40;14.13;;;9.82;;
43803;SDS011;29430;52.924;-2.388;2023-06-10T10:34:18;17.67;;;10.10;;
43803;SDS011;29430;52.924;-2.388;2023-06-10T10:39:16;13.52;;;9.23;;
43803;SDS011;29430;52.924;-2.388;2023-06-10T10:44:08;13.88;;;9.63;;
43803;SDS011;29430;52.924;-2.388;2023-06-10T10:49:01;14.05;;;8.88;;
43803;SDS011;29430;52.924;-2.388;2023-06-10T10:54:12;14.63;;;9.25;;
43803;SDS011;29430;52.924;-2.388;2023-06-10T10:59:05;15.88;;;9.63;;
43803;SDS011;29430;52.924;-2.388;2023-06-10T11:03:57;14.05;;;8.50;;
43803;SDS011;29430;52.924;-2.388;2023-06-10T11:08:49;17.58;;;10.63;;
43803;SDS011;29430;52.924;-2.388;2023-06-10T11:13:41;14.68;;;9.60;;
43803;SDS011;29430;52.924;-2.388;2023-06-10T11:18:49;15.02;;;9.65;;
43803;SDS011;29430;52.924;-2.388;2023-06-10T11:23:45;13.10;;;8.60;;
43803;SDS011;29430;52.924;-2.388;2023-06-10T11:28:40;11.52;;;8.85;;
43803;SDS011;29430;52.924;-2.388;2023-06-10T11:33:33;17.63;;;8.38;;
43803;SDS011;29430;52.924;-2.388;2023-06-10T11:38:29;15.20;;;7.50;;
43803;SDS011;29430;52.924;-2.388;2023-06-10T11:43:21;8.68;;;6.85;;
43803;SDS011;29430;52.924;-2.388;2023-06-10T11:48:13;14.43;;;7.05;;
43803;SDS011;29430;52.924;-2.388;2023-06-10T11:53:05;11.18;;;6.50;;
43803;SDS011;29430;52.924;-2.388;2023-06-10T11:57:59;11.95;;;7.15;;
43803;SDS011;29430;52.924;-2.388;2023-06-10T12:02:55;13.32;;;6.25;;
43803;SDS011;29430;52.924;-2.388;2023-06-10T12:07:49;11.32;;;6.57;;
43803;SDS011;29430;52.924;-2.388;2023-06-10T12:12:41;10.82;;;5.97;;
43803;SDS011;29430;52.924;-2.388;2023-06-10T12:22:43;18.55;;;5.97;;
43803;SDS011;29430;52.924;-2.388;2023-06-10T12:27:36;12.63;;;6.85;;
43803;SDS011;29430;52.924;-2.388;2023-06-10T12:33:01;12.20;;;6.70;;
43803;SDS011;29430;52.924;-2.388;2023-06-10T12:37:59;12.93;;;6.05;;
43803;SDS011;29430;52.924;-2.388;2023-06-10T12:42:53;9.85;;;5.32;;
43803;SDS011;29430;52.924;-2.388;2023-06-10T12:47:45;11.27;;;6.35;;
43803;SDS011;29430;52.924;-2.388;2023-06-10T12:52:37;12.93;;;6.15;;
43803;SDS011;29430;52.924;-2.388;2023-06-10T12:57:28;10.55;;;6.10;;
43803;SDS011;29430;52.924;-2.388;2023-06-10T13:02:21;8.15;;;5.18;;
43803;SDS011;29430;52.924;-2.388;2023-06-10T13:07:15;9.65;;;5.30;;
43803;SDS011;29430;52.924;-2.388;2023-06-10T13:12:07;11.80;;;5.20;;
43803;SDS011;29430;52.924;-2.388;2023-06-10T13:17:06;13.10;;;5.78;;
43803;SDS011;29430;52.924;-2.388;2023-06-10T13:21:58;11.05;;;5.60;;
43803;SDS011;29430;52.924;-2.388;2023-06-10T13:26:50;12.48;;;5.13;;
43803;SDS011;29430;52.924;-2.388;2023-06-10T13:31:41;10.02;;;5.07;;
43803;SDS011;29430;52.924;-2.388;2023-06-10T13:36:33;11.93;;;5.32;;
43803;SDS011;29430;52.924;-2.388;2023-06-10T13:41:25;11.23;;;4.45;;
43803;SDS011;29430;52.924;-2.388;2023-06-10T13:46:19;10.50;;;5.13;;
43803;SDS011;29430;52.924;-2.388;2023-06-10T13:51:13;7.97;;;4.57;;
43803;SDS011;29430;52.924;-2.388;2023-06-10T13:56:04;9.48;;;4.97;;
43803;SDS011;29430;52.924;-2.388;2023-06-10T14:00:56;11.63;;;5.32;;
43803;SDS011;29430;52.924;-2.388;2023-06-10T14:05:49;9.60;;;4.18;;
43803;SDS011;29430;52.924;-2.388;2023-06-10T14:10:41;8.25;;;4.88;;
43803;SDS011;29430;52.924;-2.388;2023-06-10T14:15:33;9.00;;;4.07;;
43803;SDS011;29430;52.924;-2.388;2023-06-10T14:20:24;10.93;;;4.18;;
43803;SDS011;29430;52.924;-2.388;2023-06-10T14:25:17;12.38;;;5.32;;
43803;SDS011;29430;52.924;-2.388;2023-06-10T14:30:09;10.20;;;4.38;;
43803;SDS011;29430;52.924;-2.388;2023-06-10T14:35:02;9.85;;;4.47;;
43803;SDS011;29430;52.924;-2.388;2023-06-10T14:39:54;8.15;;;4.47;;
43803;SDS011;29430;52.924;-2.388;2023-06-10T14:44:46;9.35;;;5.20;;
43803;SDS011;29430;52.924;-2.388;2023-06-10T14:49:37;6.78;;;4.38;;
43803;SDS011;29430;52.924;-2.388;2023-06-10T14:54:29;9.02;;;4.20;;
43803;SDS011;29430;52.924;-2.388;2023-06-10T14:59:21;12.75;;;4.97;;
43803;SDS011;29430;52.924;-2.388;2023-06-10T15:04:13;10.70;;;4.55;;
43803;SDS011;29430;52.924;-2.388;2023-06-10T15:09:04;8.95;;;4.72;;
43803;SDS011;29430;52.924;-2.388;2023-06-10T15:13:56;7.57;;;4.55;;
43803;SDS011;29430;52.924;-2.388;2023-06-10T15:18:48;9.57;;;4.00;;
43803;SDS011;29430;52.924;-2.388;2023-06-10T15:23:40;9.55;;;4.90;;
43803;SDS011;29430;52.924;-2.388;2023-06-10T15:28:32;6.43;;;4.65;;
43803;SDS011;29430;52.924;-2.388;2023-06-10T15:33:24;7.90;;;4.20;;
43803;SDS011;29430;52.924;-2.388;2023-06-10T15:38:15;7.38;;;4.80;;
43803;SDS011;29430;52.924;-2.388;2023-06-10T15:43:07;8.23;;;3.97;;
43803;SDS011;29430;52.924;-2.388;2023-06-10T15:47:58;6.55;;;4.50;;
43803;SDS011;29430;52.924;-2.388;2023-06-10T15:52:50;8.15;;;4.65;;
43803;SDS011;29430;52.924;-2.388;2023-06-10T15:57:42;8.38;;;4.38;;
43803;SDS011;29430;52.924;-2.388;2023-06-10T16:02:33;6.07;;;3.72;;
43803;SDS011;29430;52.924;-2.388;2023-06-10T16:07:27;6.30;;;4.15;;
43803;SDS011;29430;52.924;-2.388;2023-06-10T16:12:19;6.20;;;3.95;;
43803;SDS011;29430;52.924;-2.388;2023-06-10T16:17:10;8.07;;;4.05;;
43803;SDS011;29430;52.924;-2.388;2023-06-10T16:22:02;8.02;;;4.32;;
43803;SDS011;29430;52.924;-2.388;2023-06-10T16:26:54;8.23;;;3.75;;
43803;SDS011;29430;52.924;-2.388;2023-06-10T16:31:46;9.02;;;4.50;;
43803;SDS011;29430;52.924;-2.388;2023-06-10T16:36:39;5.22;;;4.13;;
43803;SDS011;29430;52.924;-2.388;2023-06-10T16:41:31;9.80;;;4.70;;
43803;SDS011;29430;52.924;-2.388;2023-06-10T16:46:22;5.53;;;4.68;;
43803;SDS011;29430;52.924;-2.388;2023-06-10T16:51:14;9.65;;;5.18;;
43803;SDS011;29430;52.924;-2.388;2023-06-10T16:56:06;7.50;;;5.25;;
43803;SDS011;29430;52.924;-2.388;2023-06-10T17:01:01;9.18;;;5.43;;
43803;SDS011;29430;52.924;-2.388;2023-06-10T17:05:57;6.43;;;5.82;;
43803;SDS011;29430;52.924;-2.388;2023-06-10T17:10:49;5.60;;;4.22;;
43803;SDS011;29430;52.924;-2.388;2023-06-10T17:15:41;5.85;;;4.32;;
43803;SDS011;29430;52.924;-2.388;2023-06-10T17:20:32;7.97;;;4.85;;
43803;SDS011;29430;52.924;-2.388;2023-06-10T17:25:24;13.52;;;4.38;;
43803;SDS011;29430;52.924;-2.388;2023-06-10T17:30:16;15.07;;;4.50;;
43803;SDS011;29430;52.924;-2.388;2023-06-10T17:35:08;7.40;;;4.00;;
43803;SDS011;29430;52.924;-2.388;2023-06-10T17:40:01;6.97;;;3.78;;
43803;SDS011;29430;52.924;-2.388;2023-06-10T17:44:55;5.20;;;3.15;;
43803;SDS011;29430;52.924;-2.388;2023-06-10T17:49:46;6.18;;;3.28;;
43803;SDS011;29430;52.924;-2.388;2023-06-10T17:54:38;6.75;;;3.65;;
43803;SDS011;29430;52.924;-2.388;2023-06-10T17:59:30;6.55;;;2.83;;
43803;SDS011;29430;52.924;-2.388;2023-06-10T18:04:22;4.50;;;2.67;;
43803;SDS011;29430;52.924;-2.388;2023-06-10T18:09:15;4.38;;;2.25;;
43803;SDS011;29430;52.924;-2.388;2023-06-10T18:14:08;5.47;;;2.85;;
43803;SDS011;29430;52.924;-2.388;2023-06-10T18:19:01;4.50;;;3.13;;
43803;SDS011;29430;52.924;-2.388;2023-06-10T18:23:53;6.22;;;3.25;;
43803;SDS011;29430;52.924;-2.388;2023-06-10T18:28:46;4.50;;;3.65;;
43803;SDS011;29430;52.924;-2.388;2023-06-10T18:33:38;10.15;;;4.30;;
43803;SDS011;29430;52.924;-2.388;2023-06-10T18:38:30;5.43;;;3.15;;
43803;SDS011;29430;52.924;-2.388;2023-06-10T18:43:22;4.20;;;3.50;;
43803;SDS011;29430;52.924;-2.388;2023-06-10T18:48:13;5.18;;;3.70;;
43803;SDS011;29430;52.924;-2.388;2023-06-10T18:53:06;6.57;;;4.78;;
43803;SDS011;29430;52.924;-2.388;2023-06-10T18:57:58;10.75;;;6.57;;
43803;SDS011;29430;52.924;-2.388;2023-06-10T19:02:50;9.73;;;6.05;;
43803;SDS011;29430;52.924;-2.388;2023-06-10T19:07:42;10.63;;;6.97;;
43803;SDS011;29430;52.924;-2.388;2023-06-10T19:12:34;6.30;;;5.72;;
43803;SDS011;29430;52.924;-2.388;2023-06-10T19:17:26;9.02;;;5.82;;
43803;SDS011;29430;52.924;-2.388;2023-06-10T19:22:18;5.85;;;4.72;;
43803;SDS011;29430;52.924;-2.388;2023-06-10T19:27:10;7.88;;;4.63;;
43803;SDS011;29430;52.924;-2.388;2023-06-10T19:32:04;7.15;;;5.00;;
43803;SDS011;29430;52.924;-2.388;2023-06-10T19:36:57;5.88;;;5.28;;
43803;SDS011;29430;52.924;-2.388;2023-06-10T19:41:48;6.03;;;4.35;;
43803;SDS011;29430;52.924;-2.388;2023-06-10T19:46:40;5.35;;;3.95;;
43803;SDS011;29430;52.924;-2.388;2023-06-10T19:51:32;4.00;;;3.60;;
43803;SDS011;29430;52.924;-2.388;2023-06-10T19:56:24;5.82;;;4.38;;
43803;SDS011;29430;52.924;-2.388;2023-06-10T20:01:16;5.80;;;3.70;;
43803;SDS011;29430;52.924;-2.388;2023-06-10T20:06:08;4.70;;;3.97;;
43803;SDS011;29430;52.924;-2.388;2023-06-10T20:11:00;3.10;;;2.30;;
43803;SDS011;29430;52.924;-2.388;2023-06-10T20:15:51;2.80;;;2.15;;
43803;SDS011;29430;52.924;-2.388;2023-06-10T20:20:44;3.80;;;3.33;;
43803;SDS011;29430;52.924;-2.388;2023-06-10T20:25:35;4.25;;;3.35;;
43803;SDS011;29430;52.924;-2.388;2023-06-10T20:30:27;3.55;;;2.45;;
43803;SDS011;29430;52.924;-2.388;2023-06-10T20:35:19;4.80;;;2.80;;
43803;SDS011;29430;52.924;-2.388;2023-06-10T20:40:11;4.63;;;3.03;;
43803;SDS011;29430;52.924;-2.388;2023-06-10T20:45:05;7.15;;;3.00;;
43803;SDS011;29430;52.924;-2.388;2023-06-10T20:49:58;3.92;;;2.78;;
43803;SDS011;29430;52.924;-2.388;2023-06-10T20:54:50;3.50;;;2.97;;
43803;SDS011;29430;52.924;-2.388;2023-06-10T20:59:42;3.80;;;3.25;;
43803;SDS011;29430;52.924;-2.388;2023-06-10T21:04:33;5.35;;;3.22;;
43803;SDS011;29430;52.924;-2.388;2023-06-10T21:09:26;4.45;;;4.05;;
43803;SDS011;29430;52.924;-2.388;2023-06-10T21:14:18;4.90;;;4.43;;
43803;SDS011;29430;52.924;-2.388;2023-06-10T21:19:10;4.97;;;4.35;;
43803;SDS011;29430;52.924;-2.388;2023-06-10T21:24:03;5.55;;;5.05;;
43803;SDS011;29430;52.924;-2.388;2023-06-10T21:28:55;4.72;;;4.03;;
43803;SDS011;29430;52.924;-2.388;2023-06-10T21:33:47;5.38;;;4.93;;
43803;SDS011;29430;52.924;-2.388;2023-06-10T21:38:39;6.82;;;5.50;;
43803;SDS011;29430;52.924;-2.388;2023-06-10T21:43:30;8.13;;;6.53;;
43803;SDS011;29430;52.924;-2.388;2023-06-10T21:48:22;8.05;;;7.32;;
43803;SDS011;29430;52.924;-2.388;2023-06-10T21:53:14;9.30;;;7.93;;
43803;SDS011;29430;52.924;-2.388;2023-06-10T21:58:05;7.75;;;7.00;;
43803;SDS011;29430;52.924;-2.388;2023-06-10T22:02:57;9.00;;;8.10;;
43803;SDS011;29430;52.924;-2.388;2023-06-10T22:07:50;9.15;;;8.23;;
43803;SDS011;29430;52.924;-2.388;2023-06-10T22:12:41;9.55;;;8.55;;
43803;SDS011;29430;52.924;-2.388;2023-06-10T22:17:33;9.60;;;8.38;;
43803;SDS011;29430;52.924;-2.388;2023-06-10T22:22:25;11.18;;;7.80;;
43803;SDS011;29430;52.924;-2.388;2023-06-10T22:27:16;9.40;;;8.48;;
43803;SDS011;29430;52.924;-2.388;2023-06-10T22:32:08;9.02;;;8.10;;
43803;SDS011;29430;52.924;-2.388;2023-06-10T22:37:00;7.47;;;6.78;;
43803;SDS011;29430;52.924;-2.388;2023-06-10T22:41:52;8.43;;;7.53;;
43803;SDS011;29430;52.924;-2.388;2023-06-10T22:46:44;8.63;;;7.78;;
43803;SDS011;29430;52.924;-2.388;2023-06-10T22:51:35;9.25;;;8.30;;
43803;SDS011;29430;52.924;-2.388;2023-06-10T22:56:27;9.32;;;8.43;;
43803;SDS011;29430;52.924;-2.388;2023-06-10T23:01:19;8.88;;;7.97;;
43803;SDS011;29430;52.924;-2.388;2023-06-10T23:06:11;9.88;;;8.98;;
43803;SDS011;29430;52.924;-2.388;2023-06-10T23:11:02;11.20;;;9.07;;
43803;SDS011;29430;52.924;-2.388;2023-06-10T23:15:54;9.68;;;8.77;;
43803;SDS011;29430;52.924;-2.388;2023-06-10T23:20:46;8.70;;;7.82;;
43803;SDS011;29430;52.924;-2.388;2023-06-10T23:25:38;9.18;;;8.27;;
43803;SDS011;29430;52.924;-2.388;2023-06-10T23:30:29;8.38;;;7.47;;
43803;SDS011;29430;52.924;-2.388;2023-06-10T23:35:21;8.07;;;7.35;;
43803;SDS011;29430;52.924;-2.388;2023-06-10T23:40:13;8.85;;;8.05;;
43803;SDS011;29430;52.924;-2.388;2023-06-10T23:45:06;8.35;;;7.57;;
43803;SDS011;29430;52.924;-2.388;2023-06-10T23:49:58;9.45;;;7.78;;
43803;SDS011;29430;52.924;-2.388;2023-06-10T23:54:50;9.95;;;8.63;;
43803;SDS011;29430;52.924;-2.388;2023-06-10T23:59:42;8.75;;;7.78;;
